Five Points, Tennessee
Current Conditions -  °F | °C
As of 5:53 PM on Saturday 25 Oct 2014 (Local Time) from KMSL Reporting Station
Clear Clear  
Wind Chill: 74°   Ceiling: Unl
Heat Index: 74°   Visibility: 10mi
Dew Point: 61°   Wind: 6mph
Humidity: 64%   Direction: 250°WSW
Pressure: 30.04"   Gusts: NA
Location:  35.05°N, 87.31°W
Report Text: KMSL 252253Z AUTO 25005KT 10SM CLR 23/16 A3004 RMK AO2 SLP169 T02330161
Loading
Personal Weather Stations






























Interactive Weather Map
Tropical Storm Tracking
New forecast layout! Learn more

10-Day Weather Forecast

Advertisements
Track Severe Weather on mobile